Time;durP1;ratioP1;P1;durP2;ratioP2;P2;SDS_P1;SDS_P2;PMS_P1;PMS_P2;Temp;Humidity;BMP_temperature;BMP_pressure;BME280_temperature;BME280_humidity;BME280_pressure;Samples;Min_cycle;Max_cycle;Signal;HPM_P1;HPM_P2
2023/07/09 00:00:56;;;;;;;4.40;1.83;;;;;;;;;;5132789;27;20279;-77
2023/07/09 00:03:24;;;;;;;4.35;1.85;;;;;;;;;;5131708;27;20288;-78
2023/07/09 00:05:51;;;;;;;3.40;1.83;;;;;;;;;;5132791;27;20199;-78
2023/07/09 00:08:26;;;;;;;3.25;1.60;;;;;;;;;;5132608;27;20228;-78
2023/07/09 00:10:53;;;;;;;3.78;1.67;;;;;;;;;;5132374;27;20192;-77
2023/07/09 00:13:20;;;;;;;3.72;1.92;;;;;;;;;;5132431;27;20239;-77
2023/07/09 00:15:49;;;;;;;4.18;1.60;;;;;;;;;;5132170;27;20311;-77
2023/07/09 00:18:16;;;;;;;6.10;1.73;;;;;;;;;;5132762;27;20254;-77
2023/07/09 00:20:43;;;;;;;5.53;1.92;;;;;;;;;;5131963;28;20224;-77
2023/07/09 00:23:13;;;;;;;4.03;1.80;;;;;;;;;;5132177;28;20198;-77
2023/07/09 00:25:41;;;;;;;5.25;2.00;;;;;;;;;;5131878;28;20189;-77
2023/07/09 00:28:10;;;;;;;4.85;1.85;;;;;;;;;;5132530;28;20193;-77
2023/07/09 00:30:37;;;;;;;3.58;1.70;;;;;;;;;;5132254;28;20725;-78
2023/07/09 00:33:09;;;;;;;5.38;1.75;;;;;;;;;;5132151;28;20765;-77
2023/07/09 00:35:36;;;;;;;4.18;1.70;;;;;;;;;;5132437;27;20260;-77
2023/07/09 00:38:03;;;;;;;8.05;2.10;;;;;;;;;;5132193;27;20228;-77
2023/07/09 00:40:31;;;;;;;4.53;1.85;;;;;;;;;;5132041;28;20733;-78
2023/07/09 00:43:02;;;;;;;4.18;1.80;;;;;;;;;;5132482;27;20262;-78
2023/07/09 00:45:29;;;;;;;3.97;1.77;;;;;;;;;;5132270;27;20284;-77
2023/07/09 00:47:58;;;;;;;3.67;1.55;;;;;;;;;;5131691;28;20221;-78
2023/07/09 00:50:34;;;;;;;4.30;1.95;;;;;;;;;;5132077;28;20336;-77
2023/07/09 00:53:07;;;;;;;3.95;1.70;;;;;;;;;;5132429;28;20193;-76
2023/07/09 00:55:37;;;;;;;4.93;1.80;;;;;;;;;;5132077;28;20252;-77
2023/07/09 00:58:07;;;;;;;4.82;1.73;;;;;;;;;;5131955;27;20672;-77
2023/07/09 01:00:42;;;;;;;4.30;2.00;;;;;;;;;;5132055;27;20203;-77
2023/07/09 01:03:11;;;;;;;4.63;1.95;;;;;;;;;;5131719;28;20248;-77
2023/07/09 01:05:40;;;;;;;5.65;2.03;;;;;;;;;;5132434;28;20226;-77
2023/07/09 01:08:09;;;;;;;6.25;2.33;;;;;;;;;;5131605;27;20715;-77
2023/07/09 01:10:37;;;;;;;5.95;2.53;;;;;;;;;;5132265;28;20242;-78
2023/07/09 01:13:04;;;;;;;5.28;2.30;;;;;;;;;;5131958;28;20199;-77
2023/07/09 01:15:33;;;;;;;4.32;2.00;;;;;;;;;;5135493;27;20307;-78
2023/07/09 01:18:01;;;;;;;4.50;2.10;;;;;;;;;;5135677;27;20245;-78
2023/07/09 01:20:28;;;;;;;4.80;2.08;;;;;;;;;;5135731;27;20185;-77
2023/07/09 01:23:00;;;;;;;3.17;1.70;;;;;;;;;;5135996;27;20288;-77
2023/07/09 01:25:29;;;;;;;6.00;2.35;;;;;;;;;;5135938;27;20202;-77
2023/07/09 01:27:57;;;;;;;5.72;1.83;;;;;;;;;;5135804;27;20573;-77
2023/07/09 01:30:25;;;;;;;6.53;1.80;;;;;;;;;;5135997;27;20225;-78
2023/07/09 01:32:52;;;;;;;4.03;1.77;;;;;;;;;;5135289;27;20216;-77
2023/07/09 01:35:21;;;;;;;6.80;1.85;;;;;;;;;;5135500;27;20283;-77
2023/07/09 01:37:49;;;;;;;4.55;1.80;;;;;;;;;;5135467;27;20674;-77
2023/07/09 01:40:18;;;;;;;4.50;1.60;;;;;;;;;;5135183;27;20757;-76
2023/07/09 01:42:46;;;;;;;4.53;1.80;;;;;;;;;;5135521;27;20280;-77
2023/07/09 01:45:13;;;;;;;4.18;1.63;;;;;;;;;;5135254;27;20228;-76
2023/07/09 01:47:43;;;;;;;5.53;1.73;;;;;;;;;;5135277;27;20280;-77
2023/07/09 01:50:11;;;;;;;4.40;1.48;;;;;;;;;;5135118;27;20312;-77
2023/07/09 01:52:41;;;;;;;4.97;1.60;;;;;;;;;;5135192;27;20197;-77
2023/07/09 01:55:08;;;;;;;4.90;1.55;;;;;;;;;;5135616;27;20654;-77
2023/07/09 01:57:37;;;;;;;3.22;1.50;;;;;;;;;;5134905;27;20232;-77
2023/07/09 02:00:08;;;;;;;5.72;1.80;;;;;;;;;;5135274;27;20272;-76
2023/07/09 02:02:36;;;;;;;4.05;1.65;;;;;;;;;;5135117;27;20208;-77
2023/07/09 02:05:03;;;;;;;4.10;1.80;;;;;;;;;;5135199;27;20197;-78
2023/07/09 02:07:30;;;;;;;8.02;1.92;;;;;;;;;;5134984;27;20224;-77
2023/07/09 02:09:59;;;;;;;7.50;1.75;;;;;;;;;;5135288;27;20221;-76
2023/07/09 02:12:26;;;;;;;5.25;1.50;;;;;;;;;;5134749;27;20200;-76
2023/07/09 02:14:54;;;;;;;4.50;1.73;;;;;;;;;;5134301;27;20283;-77
2023/07/09 02:17:22;;;;;;;6.43;1.95;;;;;;;;;;5134538;27;20225;-77
2023/07/09 02:19:49;;;;;;;4.13;2.08;;;;;;;;;;5135133;27;20272;-77
2023/07/09 02:22:16;;;;;;;3.33;1.63;;;;;;;;;;5134303;27;20189;-77
2023/07/09 02:24:43;;;;;;;4.85;2.08;;;;;;;;;;5126100;27;20228;-78
2023/07/09 02:27:11;;;;;;;4.72;1.80;;;;;;;;;;5113584;28;20206;-77
2023/07/09 02:29:39;;;;;;;6.00;1.92;;;;;;;;;;5113625;28;20292;-77
2023/07/09 02:32:08;;;;;;;4.75;1.80;;;;;;;;;;5113422;28;20194;-78
2023/07/09 02:34:36;;;;;;;4.78;1.70;;;;;;;;;;5114110;28;20208;-76
2023/07/09 02:37:03;;;;;;;6.15;1.88;;;;;;;;;;5113631;28;20748;-78
2023/07/09 02:39:30;;;;;;;6.82;2.03;;;;;;;;;;5113468;28;20294;-77
2023/07/09 02:41:57;;;;;;;5.15;1.63;;;;;;;;;;5113682;28;20289;-77
2023/07/09 02:44:25;;;;;;;3.90;1.70;;;;;;;;;;5113580;28;20229;-77
2023/07/09 02:46:52;;;;;;;5.15;1.77;;;;;;;;;;5113595;28;20236;-78
2023/07/09 02:49:20;;;;;;;5.80;1.95;;;;;;;;;;5113511;28;20284;-77
2023/07/09 02:51:47;;;;;;;5.88;1.85;;;;;;;;;;5113136;28;20329;-77
2023/07/09 02:54:15;;;;;;;5.38;1.90;;;;;;;;;;5113418;28;20197;-77
2023/07/09 02:56:42;;;;;;;4.88;1.80;;;;;;;;;;5113322;28;20306;-77
2023/07/09 02:59:09;;;;;;;4.18;1.75;;;;;;;;;;5113196;28;20284;-76
2023/07/09 03:01:36;;;;;;;4.95;1.75;;;;;;;;;;5113067;28;20285;-77
2023/07/09 03:04:04;;;;;;;4.57;1.75;;;;;;;;;;5112816;28;20580;-77
2023/07/09 03:06:33;;;;;;;7.78;2.05;;;;;;;;;;5113478;28;20201;-77
2023/07/09 03:09:01;;;;;;;5.68;2.13;;;;;;;;;;5113480;28;20229;-78
2023/07/09 03:11:29;;;;;;;8.65;2.30;;;;;;;;;;5113295;28;20190;-76
2023/07/09 03:13:56;;;;;;;5.50;1.75;;;;;;;;;;5112752;28;20284;-77
2023/07/09 03:16:23;;;;;;;5.82;1.73;;;;;;;;;;5126778;27;20323;-77
2023/07/09 03:18:51;;;;;;;8.98;2.10;;;;;;;;;;5133307;27;20235;-77
2023/07/09 03:21:18;;;;;;;5.15;2.10;;;;;;;;;;5133469;27;20289;-77
2023/07/09 03:23:46;;;;;;;5.68;2.10;;;;;;;;;;5133924;27;20198;-76
2023/07/09 03:26:14;;;;;;;3.75;1.58;;;;;;;;;;5133238;27;20232;-78
2023/07/09 03:28:42;;;;;;;5.65;1.90;;;;;;;;;;5133005;27;20201;-77
2023/07/09 03:31:09;;;;;;;4.97;2.00;;;;;;;;;;5133468;27;20208;-76
2023/07/09 03:33:36;;;;;;;7.38;2.10;;;;;;;;;;5132698;27;20200;-76
2023/07/09 03:36:04;;;;;;;5.90;1.95;;;;;;;;;;5133202;27;20227;-77
2023/07/09 03:38:32;;;;;;;7.10;2.50;;;;;;;;;;5133227;27;20203;-77
2023/07/09 03:41:00;;;;;;;6.93;2.45;;;;;;;;;;5132931;27;20221;-77
2023/07/09 03:43:28;;;;;;;7.05;2.35;;;;;;;;;;5132812;27;20280;-76
2023/07/09 03:45:55;;;;;;;4.93;1.75;;;;;;;;;;5133064;27;20641;-76
2023/07/09 03:48:22;;;;;;;5.75;1.90;;;;;;;;;;5132872;27;20283;-77
2023/07/09 03:50:50;;;;;;;4.85;1.90;;;;;;;;;;5132756;27;20324;-77
2023/07/09 03:53:17;;;;;;;6.07;2.22;;;;;;;;;;5132543;27;20221;-77
2023/07/09 03:55:47;;;;;;;5.68;2.10;;;;;;;;;;5132887;27;20272;-78
2023/07/09 03:58:15;;;;;;;6.18;2.33;;;;;;;;;;5132151;27;20721;-77
2023/07/09 04:00:42;;;;;;;7.20;2.28;;;;;;;;;;5132678;27;20645;-77
2023/07/09 04:03:10;;;;;;;6.32;2.25;;;;;;;;;;5132736;27;20217;-77
2023/07/09 04:05:37;;;;;;;4.78;2.30;;;;;;;;;;5132887;27;20204;-77
2023/07/09 04:08:05;;;;;;;6.47;2.45;;;;;;;;;;5132262;27;20665;-77
2023/07/09 04:10:33;;;;;;;6.22;2.60;;;;;;;;;;5132867;27;20194;-77
2023/07/09 04:13:00;;;;;;;5.97;2.25;;;;;;;;;;5132055;27;20288;-77
2023/07/09 04:15:29;;;;;;;7.05;2.95;;;;;;;;;;5132319;27;20378;-77
2023/07/09 04:17:56;;;;;;;6.10;2.35;;;;;;;;;;5132283;27;20229;-78
2023/07/09 04:20:23;;;;;;;6.35;2.20;;;;;;;;;;5132932;28;20228;-76
2023/07/09 04:22:50;;;;;;;4.07;2.00;;;;;;;;;;5132109;27;20681;-77
2023/07/09 04:25:18;;;;;;;4.82;2.20;;;;;;;;;;5132022;28;20284;-76
2023/07/09 04:27:45;;;;;;;3.60;2.00;;;;;;;;;;5132414;28;20204;-78
2023/07/09 04:30:14;;;;;;;4.15;2.17;;;;;;;;;;5132348;28;20287;-77
2023/07/09 04:32:44;;;;;;;5.90;2.40;;;;;;;;;;5132287;27;20193;-77
2023/07/09 04:35:12;;;;;;;5.95;2.20;;;;;;;;;;5132351;28;20196;-77
2023/07/09 04:37:39;;;;;;;6.30;2.50;;;;;;;;;;5132131;27;20225;-77
2023/07/09 04:40:10;;;;;;;5.60;2.30;;;;;;;;;;5132033;28;20197;-77
2023/07/09 04:42:38;;;;;;;8.15;2.38;;;;;;;;;;5132546;27;20197;-77
2023/07/09 04:45:05;;;;;;;6.70;2.35;;;;;;;;;;5132255;27;20337;-77
2023/07/09 04:47:32;;;;;;;5.53;2.22;;;;;;;;;;5132287;27;20283;-77
2023/07/09 04:50:01;;;;;;;5.57;2.13;;;;;;;;;;5135131;27;20325;-77
2023/07/09 04:52:28;;;;;;;5.38;2.10;;;;;;;;;;5136359;27;20614;-77
2023/07/09 04:54:56;;;;;;;5.05;2.40;;;;;;;;;;5135781;27;20224;-78
2023/07/09 04:57:23;;;;;;;8.00;2.95;;;;;;;;;;5135826;27;20225;-77
2023/07/09 04:59:51;;;;;;;8.65;2.58;;;;;;;;;;5135673;27;20649;-77
2023/07/09 05:02:18;;;;;;;9.48;2.60;;;;;;;;;;5136183;27;20574;-76
2023/07/09 05:04:45;;;;;;;7.35;2.50;;;;;;;;;;5136390;27;20650;-77
2023/07/09 05:07:13;;;;;;;8.77;2.53;;;;;;;;;;5136209;27;20220;-77
2023/07/09 05:09:40;;;;;;;6.22;2.72;;;;;;;;;;5135892;27;20280;-75
2023/07/09 05:12:09;;;;;;;9.38;2.70;;;;;;;;;;5135978;27;20546;-78
2023/07/09 05:14:36;;;;;;;6.10;2.28;;;;;;;;;;5135908;27;20197;-78
2023/07/09 05:17:04;;;;;;;7.90;2.60;;;;;;;;;;5135578;27;20799;-77
2023/07/09 05:19:31;;;;;;;7.22;2.55;;;;;;;;;;5135988;27;20199;-77
2023/07/09 05:21:58;;;;;;;7.82;2.80;;;;;;;;;;5135839;27;20272;-78
2023/07/09 05:24:27;;;;;;;5.43;2.53;;;;;;;;;;5135534;27;20227;-77
2023/07/09 05:26:54;;;;;;;9.52;3.05;;;;;;;;;;5136012;27;20639;-77
2023/07/09 05:29:21;;;;;;;5.53;2.60;;;;;;;;;;5135848;27;20296;-77
2023/07/09 05:31:48;;;;;;;8.93;3.00;;;;;;;;;;5135981;27;20213;-77
2023/07/09 05:34:15;;;;;;;7.00;2.72;;;;;;;;;;5135766;27;20224;-77
2023/07/09 05:36:43;;;;;;;6.70;3.30;;;;;;;;;;5135614;27;20256;-78
2023/07/09 05:39:10;;;;;;;6.13;2.42;;;;;;;;;;5135065;27;20621;-77
2023/07/09 05:41:39;;;;;;;10.02;2.70;;;;;;;;;;5135713;27;20205;-77
2023/07/09 05:44:06;;;;;;;6.50;2.72;;;;;;;;;;5135820;27;20292;-77
2023/07/09 05:46:36;;;;;;;9.00;2.80;;;;;;;;;;5135463;27;20233;-77
2023/07/09 05:49:04;;;;;;;8.93;3.10;;;;;;;;;;5135815;27;20192;-77
2023/07/09 05:51:31;;;;;;;9.50;2.97;;;;;;;;;;5135612;27;20243;-77
2023/07/09 05:53:58;;;;;;;5.68;3.05;;;;;;;;;;5134856;27;20288;-77
2023/07/09 05:56:26;;;;;;;6.38;2.80;;;;;;;;;;5135284;27;20193;-76
2023/07/09 05:58:56;;;;;;;7.68;3.00;;;;;;;;;;5134950;27;20197;-77
2023/07/09 06:01:23;;;;;;;8.25;2.85;;;;;;;;;;5133898;27;20197;-77
2023/07/09 06:03:50;;;;;;;9.35;3.33;;;;;;;;;;5135230;27;20681;-78
2023/07/09 06:06:17;;;;;;;11.50;2.85;;;;;;;;;;5135377;27;20712;-77
2023/07/09 06:08:46;;;;;;;7.65;3.50;;;;;;;;;;5134756;27;20291;-78
2023/07/09 06:11:14;;;;;;;7.85;3.03;;;;;;;;;;5135163;27;20197;-77
2023/07/09 06:13:41;;;;;;;6.82;2.92;;;;;;;;;;5134707;27;20681;-77
2023/07/09 06:16:09;;;;;;;7.95;3.20;;;;;;;;;;5134546;27;20659;-77
2023/07/09 06:18:38;;;;;;;7.25;2.53;;;;;;;;;;5135285;27;20264;-77
2023/07/09 06:21:07;;;;;;;7.45;2.92;;;;;;;;;;5134162;27;20193;-77
2023/07/09 06:23:34;;;;;;;6.47;2.88;;;;;;;;;;5135272;27;20213;-77
2023/07/09 06:26:01;;;;;;;10.13;3.05;;;;;;;;;;5134700;27;20628;-76
2023/07/09 06:28:29;;;;;;;5.63;3.03;;;;;;;;;;5134394;27;20568;-77
2023/07/09 06:30:57;;;;;;;5.90;2.65;;;;;;;;;;5134925;27;20197;-78
2023/07/09 06:33:26;;;;;;;6.60;2.72;;;;;;;;;;5134570;27;20212;-78
2023/07/09 06:35:56;;;;;;;7.20;2.70;;;;;;;;;;5134114;27;20288;-78
2023/07/09 06:38:24;;;;;;;7.07;2.80;;;;;;;;;;5134609;27;20611;-77
2023/07/09 06:40:51;;;;;;;4.30;2.03;;;;;;;;;;5134909;27;20237;-77
2023/07/09 06:43:18;;;;;;;5.82;2.20;;;;;;;;;;5134652;27;20235;-77
2023/07/09 06:45:52;;;;;;;5.30;1.75;;;;;;;;;;5134429;27;20292;-76
2023/07/09 06:48:19;;;;;;;6.13;2.30;;;;;;;;;;5134492;27;20277;-78
2023/07/09 06:50:48;;;;;;;6.03;1.90;;;;;;;;;;5133628;27;20712;-78
2023/07/09 06:53:15;;;;;;;4.32;1.58;;;;;;;;;;5133876;27;20295;-78
2023/07/09 06:55:43;;;;;;;4.93;1.67;;;;;;;;;;5134165;27;20235;-77
2023/07/09 06:58:10;;;;;;;4.20;1.23;;;;;;;;;;5134104;27;20278;-78
2023/07/09 07:00:38;;;;;;;2.80;1.23;;;;;;;;;;5133928;27;20280;-77
2023/07/09 07:03:05;;;;;;;5.13;1.40;;;;;;;;;;5133865;27;20283;-77
2023/07/09 07:05:32;;;;;;;4.72;1.30;;;;;;;;;;5133355;27;20433;-75
2023/07/09 07:08:01;;;;;;;3.63;1.30;;;;;;;;;;5133954;27;20280;-77
2023/07/09 07:10:28;;;;;;;3.22;1.40;;;;;;;;;;5134169;27;20226;-77
2023/07/09 07:12:56;;;;;;;5.40;1.63;;;;;;;;;;5133438;27;20235;-77
2023/07/09 07:15:23;;;;;;;6.03;1.40;;;;;;;;;;5133486;27;20617;-78
2023/07/09 07:17:50;;;;;;;10.27;1.92;;;;;;;;;;5133762;27;20216;-77
2023/07/09 07:20:18;;;;;;;3.65;1.55;;;;;;;;;;5133457;27;20201;-78
2023/07/09 07:22:45;;;;;;;2.80;1.40;;;;;;;;;;5134089;27;20291;-78
2023/07/09 07:25:14;;;;;;;2.47;1.25;;;;;;;;;;5133768;27;20231;-76
2023/07/09 07:27:41;;;;;;;4.32;1.27;;;;;;;;;;5133334;27;20204;-78
2023/07/09 07:30:09;;;;;;;5.05;1.23;;;;;;;;;;5133210;27;20278;-78
2023/07/09 07:32:37;;;;;;;5.63;1.27;;;;;;;;;;5133487;27;20193;-77
2023/07/09 07:35:04;;;;;;;2.75;1.23;;;;;;;;;;5132959;27;20279;-77
2023/07/09 07:37:32;;;;;;;3.30;1.40;;;;;;;;;;5133649;27;20315;-78
2023/07/09 07:39:59;;;;;;;4.40;1.50;;;;;;;;;;5132981;27;20288;-77
2023/07/09 07:42:27;;;;;;;2.72;0.90;;;;;;;;;;5133492;27;20291;-78
2023/07/09 07:44:54;;;;;;;4.60;1.50;;;;;;;;;;5132785;27;20189;-77
2023/07/09 07:47:22;;;;;;;3.28;1.48;;;;;;;;;;5133363;27;20285;-78
2023/07/09 07:49:49;;;;;;;3.50;1.20;;;;;;;;;;5132831;27;20220;-78
2023/07/09 07:52:16;;;;;;;4.15;1.23;;;;;;;;;;5132911;27;20199;-77
2023/07/09 07:54:43;;;;;;;3.13;1.08;;;;;;;;;;5133101;27;20295;-77
2023/07/09 07:57:10;;;;;;;4.05;1.10;;;;;;;;;;5133067;27;20284;-77
2023/07/09 07:59:39;;;;;;;5.55;1.10;;;;;;;;;;5132856;27;20772;-77
2023/07/09 08:02:08;;;;;;;5.78;1.50;;;;;;;;;;5132516;27;20224;-77
2023/07/09 08:04:35;;;;;;;4.75;1.20;;;;;;;;;;5132638;27;20284;-77
2023/07/09 08:07:02;;;;;;;4.00;1.27;;;;;;;;;;5132706;27;20296;-77
2023/07/09 08:09:29;;;;;;;3.38;1.20;;;;;;;;;;5132694;27;20295;-77
2023/07/09 08:11:57;;;;;;;2.92;1.20;;;;;;;;;;5133067;27;20287;-76
2023/07/09 08:14:24;;;;;;;4.47;1.10;;;;;;;;;;5132886;27;20231;-77
2023/07/09 08:16:52;;;;;;;4.63;1.30;;;;;;;;;;5132760;27;20284;-77
2023/07/09 08:19:20;;;;;;;4.82;1.40;;;;;;;;;;5132102;27;20220;-77
2023/07/09 08:21:47;;;;;;;4.53;1.17;;;;;;;;;;5132403;28;20227;-77
2023/07/09 08:24:15;;;;;;;4.78;1.35;;;;;;;;;;5131909;27;20225;-77
2023/07/09 08:26:42;;;;;;;3.92;1.40;;;;;;;;;;5132710;28;20197;-77
2023/07/09 08:29:09;;;;;;;4.60;1.42;;;;;;;;;;5132488;28;20197;-77
2023/07/09 08:31:36;;;;;;;3.15;1.00;;;;;;;;;;5132529;28;20288;-77
2023/07/09 08:34:07;;;;;;;2.92;1.30;;;;;;;;;;5132458;28;20287;-77
2023/07/09 08:36:34;;;;;;;8.57;1.30;;;;;;;;;;5132488;28;20737;-78
2023/07/09 08:39:02;;;;;;;4.15;1.25;;;;;;;;;;5132305;28;20787;-77
2023/07/09 08:41:37;;;;;;;3.42;1.23;;;;;;;;;;5132089;28;20674;-78
2023/07/09 08:44:11;;;;;;;3.85;1.15;;;;;;;;;;5132331;28;20617;-77
2023/07/09 08:46:43;;;;;;;5.55;1.30;;;;;;;;;;5132112;28;20673;-77
2023/07/09 08:49:16;;;;;;;4.95;1.35;;;;;;;;;;5132389;28;20211;-78
2023/07/09 08:51:44;;;;;;;3.10;1.30;;;;;;;;;;5131851;27;20341;-78
2023/07/09 08:54:14;;;;;;;4.90;1.42;;;;;;;;;;5132271;28;20283;-77
2023/07/09 08:56:42;;;;;;;4.70;1.20;;;;;;;;;;5132095;28;20283;-77
2023/07/09 08:59:11;;;;;;;4.13;1.40;;;;;;;;;;5132510;27;20259;-77
2023/07/09 09:01:40;;;;;;;3.20;1.33;;;;;;;;;;5131811;27;20193;-78
2023/07/09 09:04:15;;;;;;;7.43;1.38;;;;;;;;;;5131830;28;20201;-78
2023/07/09 09:06:45;;;;;;;2.38;1.20;;;;;;;;;;5131784;28;20665;-78
2023/07/09 09:09:17;;;;;;;3.97;1.30;;;;;;;;;;5132255;28;20287;-76
2023/07/09 09:11:45;;;;;;;4.07;1.50;;;;;;;;;;5132101;28;20193;-77
2023/07/09 09:14:20;;;;;;;3.78;1.40;;;;;;;;;;5131999;28;20197;-77
2023/07/09 09:16:49;;;;;;;4.55;2.13;;;;;;;;;;5131504;28;20283;-78
2023/07/09 09:19:20;;;;;;;6.13;2.72;;;;;;;;;;5131787;27;20460;-78
2023/07/09 09:21:52;;;;;;;6.63;4.30;;;;;;;;;;5131939;28;20288;-77
2023/07/09 09:24:20;;;;;;;5.68;3.90;;;;;;;;;;5132125;28;20204;-78
2023/07/09 09:26:50;;;;;;;5.32;2.80;;;;;;;;;;5132258;28;20239;-78
2023/07/09 09:29:17;;;;;;;4.88;1.50;;;;;;;;;;5131966;27;20288;-77
2023/07/09 09:31:46;;;;;;;2.85;1.13;;;;;;;;;;5131676;27;20232;-78
2023/07/09 09:34:20;;;;;;;3.38;1.50;;;;;;;;;;5132093;27;20300;-77
2023/07/09 09:36:49;;;;;;;2.63;1.38;;;;;;;;;;5135693;27;20215;-78
2023/07/09 09:39:18;;;;;;;4.00;1.30;;;;;;;;;;5135638;27;20332;-78
2023/07/09 09:41:45;;;;;;;3.70;1.27;;;;;;;;;;5135541;27;20228;-78
2023/07/09 09:44:18;;;;;;;2.88;1.30;;;;;;;;;;5135256;27;20203;-78
2023/07/09 09:46:47;;;;;;;2.78;1.40;;;;;;;;;;5135328;27;20193;-77
2023/07/09 09:49:14;;;;;;;3.72;1.40;;;;;;;;;;5135224;27;20193;-78
2023/07/09 09:51:42;;;;;;;4.25;1.25;;;;;;;;;;5134938;27;20251;-78
2023/07/09 09:54:15;;;;;;;3.97;1.60;;;;;;;;;;5135027;27;20217;-77
2023/07/09 09:56:44;;;;;;;4.70;1.52;;;;;;;;;;5135331;27;20332;-77
2023/07/09 09:59:18;;;;;;;3.38;1.40;;;;;;;;;;5135157;27;20316;-77
2023/07/09 10:01:45;;;;;;;5.10;1.60;;;;;;;;;;5135002;27;20280;-77
2023/07/09 10:04:16;;;;;;;4.80;2.33;;;;;;;;;;5135026;27;20296;-78
2023/07/09 10:06:44;;;;;;;4.15;1.90;;;;;;;;;;5134891;27;20276;-77
2023/07/09 10:09:17;;;;;;;3.03;1.48;;;;;;;;;;5134969;27;20292;-78
2023/07/09 10:11:49;;;;;;;4.18;1.30;;;;;;;;;;5135267;27;20280;-77
2023/07/09 10:14:27;;;;;;;3.58;1.60;;;;;;;;;;5133637;27;20272;-77
2023/07/09 10:16:58;;;;;;;2.88;1.33;;;;;;;;;;5131771;27;20288;-77
2023/07/09 10:19:27;;;;;;;3.63;1.50;;;;;;;;;;5133773;27;20723;-78
2023/07/09 10:21:58;;;;;;;3.15;1.05;;;;;;;;;;5130856;27;20729;-78
2023/07/09 10:24:41;;;;;;;3.72;1.33;;;;;;;;;;5133670;27;20655;-77
2023/07/09 10:27:10;;;;;;;3.22;1.33;;;;;;;;;;5138986;27;20284;-77
2023/07/09 10:29:44;;;;;;;5.93;2.88;;;;;;;;;;5133404;27;20250;-77
2023/07/09 10:32:17;;;;;;;4.57;2.38;;;;;;;;;;5134221;27;20207;-77
2023/07/09 10:34:47;;;;;;;3.67;2.05;;;;;;;;;;5133628;27;20670;-77
2023/07/09 10:37:36;;;;;;;2.97;1.10;;;;;;;;;;5134003;27;20232;-78
2023/07/09 10:40:09;;;;;;;2.80;1.02;;;;;;;;;;5134105;27;20323;-78
2023/07/09 10:42:39;;;;;;;4.00;1.42;;;;;;;;;;5133589;27;20242;-78
2023/07/09 10:45:10;;;;;;;2.42;0.93;;;;;;;;;;5133549;27;20197;-78
2023/07/09 10:47:38;;;;;;;4.75;1.85;;;;;;;;;;5133370;27;20189;-78
2023/07/09 10:50:08;;;;;;;5.15;1.50;;;;;;;;;;5133603;27;20268;-78
2023/07/09 10:52:37;;;;;;;3.50;1.42;;;;;;;;;;5133911;27;20562;-79
2023/07/09 10:55:07;;;;;;;16.85;15.07;;;;;;;;;;5133399;27;20292;-78
2023/07/09 10:57:43;;;;;;;6.18;4.50;;;;;;;;;;5132589;27;20288;-79
2023/07/09 11:00:16;;;;;;;4.15;1.73;;;;;;;;;;5133078;27;20220;-78
2023/07/09 11:02:44;;;;;;;3.10;1.40;;;;;;;;;;5133102;27;20287;-79
2023/07/09 11:05:11;;;;;;;5.05;1.77;;;;;;;;;;5132844;27;20643;-79
2023/07/09 11:07:42;;;;;;;3.15;1.30;;;;;;;;;;5133607;27;20211;-78
2023/07/09 11:10:18;;;;;;;2.65;1.45;;;;;;;;;;5132840;27;20205;-77
2023/07/09 11:12:47;;;;;;;4.03;1.55;;;;;;;;;;5132820;27;20283;-79
2023/07/09 11:15:16;;;;;;;3.50;1.50;;;;;;;;;;5133554;27;20225;-78
2023/07/09 11:17:45;;;;;;;3.25;1.50;;;;;;;;;;5133348;27;20197;-79
2023/07/09 11:20:19;;;;;;;3.75;1.40;;;;;;;;;;5132878;27;20219;-79
2023/07/09 11:22:52;;;;;;;4.07;1.75;;;;;;;;;;5131779;27;20248;-79
2023/07/09 11:25:29;;;;;;;4.47;1.20;;;;;;;;;;5132777;27;20649;-78
2023/07/09 11:28:04;;;;;;;3.28;1.27;;;;;;;;;;5132594;27;20252;-78
2023/07/09 11:30:31;;;;;;;3.50;1.33;;;;;;;;;;5132960;27;20287;-77
2023/07/09 11:33:00;;;;;;;3.85;1.50;;;;;;;;;;5132346;27;20300;-78
2023/07/09 11:35:28;;;;;;;5.47;1.38;;;;;;;;;;5133315;27;20288;-78
2023/07/09 11:37:55;;;;;;;3.63;1.20;;;;;;;;;;5133556;27;20292;-79
2023/07/09 11:40:24;;;;;;;4.53;1.48;;;;;;;;;;5132222;27;20709;-78
2023/07/09 11:42:54;;;;;;;3.42;1.38;;;;;;;;;;5132159;27;20292;-78
2023/07/09 11:45:25;;;;;;;2.65;1.40;;;;;;;;;;5129425;27;20221;-78
2023/07/09 11:47:55;;;;;;;6.13;1.67;;;;;;;;;;5132670;27;20225;-79
2023/07/09 11:50:25;;;;;;;4.35;1.55;;;;;;;;;;5132127;27;20311;-78
2023/07/09 11:52:54;;;;;;;4.47;1.52;;;;;;;;;;5132785;27;20204;-78
2023/07/09 11:55:23;;;;;;;6.60;1.75;;;;;;;;;;5132424;27;20279;-79
2023/07/09 11:57:53;;;;;;;4.25;1.63;;;;;;;;;;5132236;27;20193;-78
2023/07/09 12:00:22;;;;;;;6.40;1.80;;;;;;;;;;5131871;27;20308;-78
2023/07/09 12:02:50;;;;;;;5.20;1.98;;;;;;;;;;5132276;27;20189;-78
2023/07/09 12:05:20;;;;;;;5.82;2.35;;;;;;;;;;5132439;27;20203;-78
2023/07/09 12:07:47;;;;;;;4.97;1.80;;;;;;;;;;5132508;27;20240;-77
2023/07/09 12:10:19;;;;;;;5.82;1.58;;;;;;;;;;5132304;27;20235;-78
2023/07/09 12:12:47;;;;;;;3.45;1.48;;;;;;;;;;5131913;27;20212;-77
2023/07/09 12:15:17;;;;;;;5.22;1.60;;;;;;;;;;5132395;27;20670;-78
2023/07/09 12:17:53;;;;;;;4.20;1.40;;;;;;;;;;5131955;27;20227;-78
2023/07/09 12:20:20;;;;;;;5.20;1.40;;;;;;;;;;5129270;27;20379;-78
2023/07/09 12:22:48;;;;;;;4.10;1.25;;;;;;;;;;5129185;27;20221;-78
2023/07/09 12:25:20;;;;;;;4.90;1.60;;;;;;;;;;5130903;27;20200;-78
2023/07/09 12:27:47;;;;;;;3.70;1.33;;;;;;;;;;5130479;27;20221;-79
2023/07/09 12:30:15;;;;;;;4.63;1.60;;;;;;;;;;5118929;28;20193;-78
2023/07/09 12:32:47;;;;;;;3.40;1.58;;;;;;;;;;5127612;27;20287;-79
2023/07/09 12:35:15;;;;;;;5.15;1.30;;;;;;;;;;5123829;27;20551;-79
2023/07/09 12:37:44;;;;;;;4.85;1.50;;;;;;;;;;5131974;28;20201;-79
2023/07/09 12:40:14;;;;;;;4.30;1.48;;;;;;;;;;5152271;27;20219;-78
2023/07/09 12:42:43;;;;;;;3.60;1.63;;;;;;;;;;5131670;27;20289;-78
2023/07/09 12:45:15;;;;;;;5.68;1.45;;;;;;;;;;5130243;27;20287;-78
2023/07/09 12:47:42;;;;;;;4.32;1.77;;;;;;;;;;5128492;28;20371;-78
2023/07/09 12:50:19;;;;;;;3.58;1.85;;;;;;;;;;5131200;27;20264;-78
2023/07/09 12:52:50;;;;;;;4.80;1.63;;;;;;;;;;5131712;28;20279;-78
2023/07/09 12:55:21;;;;;;;4.43;1.50;;;;;;;;;;5131996;27;20626;-78
2023/07/09 12:57:48;;;;;;;8.60;1.70;;;;;;;;;;5130830;28;20228;-78
2023/07/09 13:00:16;;;;;;;5.18;1.80;;;;;;;;;;5131701;27;20319;-79
2023/07/09 13:02:43;;;;;;;4.97;1.50;;;;;;;;;;5131207;27;20641;-78
2023/07/09 13:05:20;;;;;;;6.15;2.03;;;;;;;;;;5130832;27;20292;-79
2023/07/09 13:07:48;;;;;;;4.25;1.85;;;;;;;;;;5131827;28;20910;-78
2023/07/09 13:10:17;;;;;;;6.35;1.80;;;;;;;;;;5133059;27;20288;-78
2023/07/09 13:12:46;;;;;;;3.70;1.50;;;;;;;;;;5135149;27;20199;-78
2023/07/09 13:15:27;;;;;;;4.68;1.67;;;;;;;;;;5134772;27;20218;-77
2023/07/09 13:18:02;;;;;;;5.78;1.83;;;;;;;;;;5135898;27;20228;-79
2023/07/09 13:20:31;;;;;;;5.00;1.67;;;;;;;;;;5135413;27;20247;-79
2023/07/09 13:22:59;;;;;;;4.07;1.60;;;;;;;;;;5135398;27;20679;-79
2023/07/09 13:25:27;;;;;;;3.58;1.50;;;;;;;;;;5135626;27;20253;-79
2023/07/09 13:27:55;;;;;;;5.40;1.67;;;;;;;;;;5135125;27;20198;-79
2023/07/09 13:30:22;;;;;;;4.90;2.00;;;;;;;;;;5135242;27;20207;-79
2023/07/09 13:32:51;;;;;;;3.92;1.67;;;;;;;;;;5135670;27;20243;-79
2023/07/09 13:35:19;;;;;;;3.90;1.75;;;;;;;;;;5135206;27;20578;-79
2023/07/09 13:37:48;;;;;;;3.47;1.80;;;;;;;;;;5134986;27;20228;-79
2023/07/09 13:40:16;;;;;;;4.00;2.00;;;;;;;;;;5134980;27;20281;-79
2023/07/09 13:42:43;;;;;;;4.47;2.20;;;;;;;;;;5134594;27;20765;-79
2023/07/09 13:45:22;;;;;;;6.43;2.08;;;;;;;;;;5135280;27;20193;-78
2023/07/09 13:47:50;;;;;;;4.05;1.85;;;;;;;;;;5135457;27;20204;-79
2023/07/09 13:50:17;;;;;;;6.70;2.03;;;;;;;;;;5130603;27;20220;-79
2023/07/09 13:52:44;;;;;;;4.50;1.83;;;;;;;;;;5134656;27;20284;-79
2023/07/09 13:55:18;;;;;;;4.65;2.00;;;;;;;;;;5135245;27;20189;-79
2023/07/09 13:57:46;;;;;;;5.13;1.80;;;;;;;;;;5134793;27;20192;-78
2023/07/09 14:00:14;;;;;;;4.20;2.08;;;;;;;;;;5134051;27;20216;-79
2023/07/09 14:02:41;;;;;;;5.07;2.17;;;;;;;;;;5135363;27;20295;-79
2023/07/09 14:05:09;;;;;;;4.88;1.90;;;;;;;;;;5134974;27;20193;-77
2023/07/09 14:07:37;;;;;;;6.65;2.25;;;;;;;;;;5134958;27;20254;-79
2023/07/09 14:10:06;;;;;;;3.75;1.65;;;;;;;;;;5133883;27;20576;-78
2023/07/09 14:12:34;;;;;;;5.38;1.88;;;;;;;;;;5126162;27;20229;-79
2023/07/09 14:15:03;;;;;;;3.92;1.50;;;;;;;;;;5134599;27;20285;-79
2023/07/09 14:17:30;;;;;;;5.80;1.50;;;;;;;;;;5134626;27;20193;-78
2023/07/09 14:19:59;;;;;;;3.72;1.55;;;;;;;;;;5133902;27;20313;-79
2023/07/09 14:22:29;;;;;;;3.45;1.23;;;;;;;;;;5133287;27;20220;-79
2023/07/09 14:24:56;;;;;;;4.05;1.60;;;;;;;;;;5134850;27;20212;-79
2023/07/09 14:27:23;;;;;;;5.68;1.90;;;;;;;;;;5134340;27;20199;-79
2023/07/09 14:29:52;;;;;;;6.57;1.63;;;;;;;;;;5134091;27;20287;-78
2023/07/09 14:32:29;;;;;;;2.95;1.63;;;;;;;;;;5133836;27;20755;-78
2023/07/09 14:34:56;;;;;;;3.63;1.75;;;;;;;;;;5134176;27;20201;-79
2023/07/09 14:37:23;;;;;;;5.25;1.52;;;;;;;;;;5133853;27;20280;-79
2023/07/09 14:39:51;;;;;;;4.05;1.55;;;;;;;;;;5133764;27;20308;-78
2023/07/09 14:42:18;;;;;;;4.18;1.73;;;;;;;;;;5133973;27;20288;-78
2023/07/09 14:44:45;;;;;;;3.30;1.60;;;;;;;;;;5133852;27;20276;-79
2023/07/09 14:47:17;;;;;;;3.20;1.50;;;;;;;;;;5133277;27;20650;-79
2023/07/09 14:49:44;;;;;;;4.10;1.60;;;;;;;;;;5133796;27;20189;-79
2023/07/09 14:52:13;;;;;;;5.65;2.17;;;;;;;;;;5133489;27;20238;-79